sensor_id;sensor_type;location;lat;lon;timestamp;temperature;humidity
19220;DHT22;9744;49.364;7.484;2022-12-13T00:01:21;-3.60;99.90
19220;DHT22;9744;49.364;7.484;2022-12-13T00:03:51;-3.60;99.90
19220;DHT22;9744;49.364;7.484;2022-12-13T00:06:18;-3.60;99.90
19220;DHT22;9744;49.364;7.484;2022-12-13T00:08:45;-3.80;99.90
19220;DHT22;9744;49.364;7.484;2022-12-13T00:11:14;-3.80;99.90
19220;DHT22;9744;49.364;7.484;2022-12-13T00:13:42;-3.70;99.90
19220;DHT22;9744;49.364;7.484;2022-12-13T00:16:11;-3.70;99.90
19220;DHT22;9744;49.364;7.484;2022-12-13T00:18:39;-3.70;99.90
19220;DHT22;9744;49.364;7.484;2022-12-13T00:21:11;-3.60;99.90
19220;DHT22;9744;49.364;7.484;2022-12-13T00:23:39;-3.50;99.90
19220;DHT22;9744;49.364;7.484;2022-12-13T00:26:10;-3.50;99.90
19220;DHT22;9744;49.364;7.484;2022-12-13T00:28:40;-3.50;99.90
19220;DHT22;9744;49.364;7.484;2022-12-13T00:31:08;-3.50;99.90
19220;DHT22;9744;49.364;7.484;2022-12-13T00:33:37;-3.50;99.90
19220;DHT22;9744;49.364;7.484;2022-12-13T00:36:05;-3.40;99.90
19220;DHT22;9744;49.364;7.484;2022-12-13T00:38:34;-3.20;99.90
19220;DHT22;9744;49.364;7.484;2022-12-13T00:41:09;-3.00;99.90
19220;DHT22;9744;49.364;7.484;2022-12-13T00:43:36;-3.00;99.90
19220;DHT22;9744;49.364;7.484;2022-12-13T00:46:06;-3.00;99.90
19220;DHT22;9744;49.364;7.484;2022-12-13T00:48:33;-3.10;99.90
19220;DHT22;9744;49.364;7.484;2022-12-13T00:51:05;-3.10;99.90
19220;DHT22;9744;49.364;7.484;2022-12-13T00:53:32;-3.10;99.90
19220;DHT22;9744;49.364;7.484;2022-12-13T00:56:00;-3.10;99.90
19220;DHT22;9744;49.364;7.484;2022-12-13T00:58:27;-3.10;99.90
19220;DHT22;9744;49.364;7.484;2022-12-13T01:01:02;-3.00;99.90
19220;DHT22;9744;49.364;7.484;2022-12-13T01:03:31;-2.90;99.90
19220;DHT22;9744;49.364;7.484;2022-12-13T01:05:58;-2.90;99.90
19220;DHT22;9744;49.364;7.484;2022-12-13T01:08:26;-2.90;99.90
19220;DHT22;9744;49.364;7.484;2022-12-13T01:10:53;-2.80;99.90
19220;DHT22;9744;49.364;7.484;2022-12-13T01:13:21;-2.80;99.90
19220;DHT22;9744;49.364;7.484;2022-12-13T01:15:48;-2.80;99.90
19220;DHT22;9744;49.364;7.484;2022-12-13T01:18:15;-2.80;99.90
19220;DHT22;9744;49.364;7.484;2022-12-13T01:20:56;-2.80;99.90
19220;DHT22;9744;49.364;7.484;2022-12-13T01:23:23;-2.70;99.90
19220;DHT22;9744;49.364;7.484;2022-12-13T01:25:51;-2.70;99.90
19220;DHT22;9744;49.364;7.484;2022-12-13T01:28:18;-2.70;99.90
19220;DHT22;9744;49.364;7.484;2022-12-13T01:30:53;-2.70;99.90
19220;DHT22;9744;49.364;7.484;2022-12-13T01:33:21;-2.70;99.90
19220;DHT22;9744;49.364;7.484;2022-12-13T01:35:50;-2.70;99.90
19220;DHT22;9744;49.364;7.484;2022-12-13T01:38:17;-2.70;99.90
19220;DHT22;9744;49.364;7.484;2022-12-13T01:40:46;-2.70;99.90
19220;DHT22;9744;49.364;7.484;2022-12-13T01:43:14;-2.70;99.90
19220;DHT22;9744;49.364;7.484;2022-12-13T01:45:42;-2.70;99.90
19220;DHT22;9744;49.364;7.484;2022-12-13T01:48:12;-2.80;99.90
19220;DHT22;9744;49.364;7.484;2022-12-13T01:50:45;-2.80;99.90
19220;DHT22;9744;49.364;7.484;2022-12-13T01:53:18;-2.80;99.90
19220;DHT22;9744;49.364;7.484;2022-12-13T01:55:48;-2.70;99.90
19220;DHT22;9744;49.364;7.484;2022-12-13T01:58:16;-2.70;99.90
19220;DHT22;9744;49.364;7.484;2022-12-13T02:00:44;-2.70;99.90
19220;DHT22;9744;49.364;7.484;2022-12-13T02:03:13;-2.70;99.90
19220;DHT22;9744;49.364;7.484;2022-12-13T02:05:44;-2.70;99.90
19220;DHT22;9744;49.364;7.484;2022-12-13T02:08:15;-2.60;99.90
19220;DHT22;9744;49.364;7.484;2022-12-13T02:10:44;-2.70;99.90
19220;DHT22;9744;49.364;7.484;2022-12-13T02:13:12;-2.60;99.90
19220;DHT22;9744;49.364;7.484;2022-12-13T02:15:46;-2.60;99.90
19220;DHT22;9744;49.364;7.484;2022-12-13T02:18:32;-2.60;99.90
19220;DHT22;9744;49.364;7.484;2022-12-13T02:21:20;-2.70;99.90
19220;DHT22;9744;49.364;7.484;2022-12-13T02:24:18;-2.70;99.90
19220;DHT22;9744;49.364;7.484;2022-12-13T02:27:06;-2.80;99.90
19220;DHT22;9744;49.364;7.484;2022-12-13T02:32:50;-2.70;99.90
19220;DHT22;9744;49.364;7.484;2022-12-13T02:35:24;-2.70;99.90
19220;DHT22;9744;49.364;7.484;2022-12-13T02:37:58;-2.70;99.90
19220;DHT22;9744;49.364;7.484;2022-12-13T02:40:28;-2.70;99.90
19220;DHT22;9744;49.364;7.484;2022-12-13T02:43:00;-2.80;99.90
19220;DHT22;9744;49.364;7.484;2022-12-13T02:45:36;-2.90;99.90
19220;DHT22;9744;49.364;7.484;2022-12-13T02:48:07;-2.90;99.90
19220;DHT22;9744;49.364;7.484;2022-12-13T02:50:36;-2.90;99.90
19220;DHT22;9744;49.364;7.484;2022-12-13T02:53:04;-2.90;99.90
19220;DHT22;9744;49.364;7.484;2022-12-13T02:55:32;-2.90;99.90
19220;DHT22;9744;49.364;7.484;2022-12-13T02:58:01;-3.00;99.90
19220;DHT22;9744;49.364;7.484;2022-12-13T03:00:35;-3.00;99.90
19220;DHT22;9744;49.364;7.484;2022-12-13T03:03:16;-3.00;99.90
19220;DHT22;9744;49.364;7.484;2022-12-13T03:05:52;-3.00;99.90
19220;DHT22;9744;49.364;7.484;2022-12-13T03:08:49;-2.90;99.90
19220;DHT22;9744;49.364;7.484;2022-12-13T03:11:21;-2.90;99.90
19220;DHT22;9744;49.364;7.484;2022-12-13T03:13:51;-2.90;99.90
19220;DHT22;9744;49.364;7.484;2022-12-13T03:16:28;-2.90;99.90
19220;DHT22;9744;49.364;7.484;2022-12-13T03:19:03;-2.90;99.90
19220;DHT22;9744;49.364;7.484;2022-12-13T03:21:37;-3.00;99.90
19220;DHT22;9744;49.364;7.484;2022-12-13T03:24:05;-3.00;99.90
19220;DHT22;9744;49.364;7.484;2022-12-13T03:26:32;-3.00;99.90
19220;DHT22;9744;49.364;7.484;2022-12-13T03:29:00;-3.00;99.90
19220;DHT22;9744;49.364;7.484;2022-12-13T03:31:28;-3.10;99.90
19220;DHT22;9744;49.364;7.484;2022-12-13T03:33:55;-3.20;99.90
19220;DHT22;9744;49.364;7.484;2022-12-13T03:36:24;-3.20;99.90
19220;DHT22;9744;49.364;7.484;2022-12-13T03:38:52;-3.20;99.90
19220;DHT22;9744;49.364;7.484;2022-12-13T03:41:22;-3.20;99.90
19220;DHT22;9744;49.364;7.484;2022-12-13T03:43:56;-3.20;99.90
19220;DHT22;9744;49.364;7.484;2022-12-13T03:46:23;-3.30;99.90
19220;DHT22;9744;49.364;7.484;2022-12-13T03:48:50;-3.30;99.90
19220;DHT22;9744;49.364;7.484;2022-12-13T03:51:17;-3.50;99.90
19220;DHT22;9744;49.364;7.484;2022-12-13T03:53:46;-3.40;99.90
19220;DHT22;9744;49.364;7.484;2022-12-13T03:56:14;-3.30;99.90
19220;DHT22;9744;49.364;7.484;2022-12-13T03:58:41;-3.30;99.90
19220;DHT22;9744;49.364;7.484;2022-12-13T04:01:10;-3.30;99.90
19220;DHT22;9744;49.364;7.484;2022-12-13T04:03:39;-3.30;99.90
19220;DHT22;9744;49.364;7.484;2022-12-13T04:06:07;-3.50;99.90
19220;DHT22;9744;49.364;7.484;2022-12-13T04:08:37;-3.50;99.90
19220;DHT22;9744;49.364;7.484;2022-12-13T04:11:06;-3.60;99.90
19220;DHT22;9744;49.364;7.484;2022-12-13T04:13:48;-3.60;99.90
19220;DHT22;9744;49.364;7.484;2022-12-13T04:16:15;-3.60;99.90
19220;DHT22;9744;49.364;7.484;2022-12-13T04:18:42;-3.60;99.90
19220;DHT22;9744;49.364;7.484;2022-12-13T04:21:10;-3.50;99.90
19220;DHT22;9744;49.364;7.484;2022-12-13T04:23:37;-3.60;99.90
19220;DHT22;9744;49.364;7.484;2022-12-13T04:26:06;-3.60;99.90
19220;DHT22;9744;49.364;7.484;2022-12-13T04:28:33;-3.50;99.90
19220;DHT22;9744;49.364;7.484;2022-12-13T04:31:01;-3.50;99.90
19220;DHT22;9744;49.364;7.484;2022-12-13T04:33:29;-3.40;99.90
19220;DHT22;9744;49.364;7.484;2022-12-13T04:35:57;-3.40;99.90
19220;DHT22;9744;49.364;7.484;2022-12-13T04:38:24;-3.40;99.90
19220;DHT22;9744;49.364;7.484;2022-12-13T04:40:52;-3.50;99.90
19220;DHT22;9744;49.364;7.484;2022-12-13T04:43:20;-3.50;99.90
19220;DHT22;9744;49.364;7.484;2022-12-13T04:45:48;-3.60;99.90
19220;DHT22;9744;49.364;7.484;2022-12-13T04:48:16;-3.60;99.90
19220;DHT22;9744;49.364;7.484;2022-12-13T04:50:43;-3.70;99.90
19220;DHT22;9744;49.364;7.484;2022-12-13T04:53:13;-3.60;99.90
19220;DHT22;9744;49.364;7.484;2022-12-13T04:55:41;-3.30;99.90
19220;DHT22;9744;49.364;7.484;2022-12-13T04:58:10;-3.80;99.90
19220;DHT22;9744;49.364;7.484;2022-12-13T05:00:39;-3.80;99.90
19220;DHT22;9744;49.364;7.484;2022-12-13T05:03:07;-3.80;99.90
19220;DHT22;9744;49.364;7.484;2022-12-13T05:05:37;-3.70;99.90
19220;DHT22;9744;49.364;7.484;2022-12-13T05:08:05;-3.60;99.90
19220;DHT22;9744;49.364;7.484;2022-12-13T05:10:36;-3.60;99.90
19220;DHT22;9744;49.364;7.484;2022-12-13T05:13:03;-3.50;99.90
19220;DHT22;9744;49.364;7.484;2022-12-13T05:15:31;-3.60;99.90
19220;DHT22;9744;49.364;7.484;2022-12-13T05:18:01;-3.60;99.90
19220;DHT22;9744;49.364;7.484;2022-12-13T05:20:28;-3.60;99.90
19220;DHT22;9744;49.364;7.484;2022-12-13T05:22:55;-3.60;99.90
19220;DHT22;9744;49.364;7.484;2022-12-13T05:25:23;-3.50;99.90
19220;DHT22;9744;49.364;7.484;2022-12-13T05:27:51;-3.50;99.90
19220;DHT22;9744;49.364;7.484;2022-12-13T05:30:19;-3.60;99.90
19220;DHT22;9744;49.364;7.484;2022-12-13T05:32:46;-3.60;99.90
19220;DHT22;9744;49.364;7.484;2022-12-13T05:35:15;-3.60;99.90
19220;DHT22;9744;49.364;7.484;2022-12-13T05:37:42;-3.80;99.90
19220;DHT22;9744;49.364;7.484;2022-12-13T05:40:10;-3.80;99.90
19220;DHT22;9744;49.364;7.484;2022-12-13T05:42:37;-3.80;99.90
19220;DHT22;9744;49.364;7.484;2022-12-13T05:45:06;-3.80;99.90
19220;DHT22;9744;49.364;7.484;2022-12-13T05:47:35;-3.70;99.90
19220;DHT22;9744;49.364;7.484;2022-12-13T05:50:03;-3.70;99.90
19220;DHT22;9744;49.364;7.484;2022-12-13T05:52:32;-3.80;99.90
19220;DHT22;9744;49.364;7.484;2022-12-13T05:54:59;-3.80;99.90
19220;DHT22;9744;49.364;7.484;2022-12-13T05:57:26;-3.80;99.90
19220;DHT22;9744;49.364;7.484;2022-12-13T05:59:54;-3.80;99.90
19220;DHT22;9744;49.364;7.484;2022-12-13T06:02:21;-3.80;99.90
19220;DHT22;9744;49.364;7.484;2022-12-13T06:04:49;-3.80;99.90
19220;DHT22;9744;49.364;7.484;2022-12-13T06:07:16;-3.80;99.90
19220;DHT22;9744;49.364;7.484;2022-12-13T06:09:45;-3.70;99.90
19220;DHT22;9744;49.364;7.484;2022-12-13T06:12:12;-3.60;99.90
19220;DHT22;9744;49.364;7.484;2022-12-13T06:14:40;-3.70;99.90
19220;DHT22;9744;49.364;7.484;2022-12-13T06:17:08;-3.70;99.90
19220;DHT22;9744;49.364;7.484;2022-12-13T06:19:35;-3.70;99.90
19220;DHT22;9744;49.364;7.484;2022-12-13T06:22:02;-3.80;99.90
19220;DHT22;9744;49.364;7.484;2022-12-13T06:24:30;-3.80;99.90
19220;DHT22;9744;49.364;7.484;2022-12-13T06:26:58;-3.70;99.90
19220;DHT22;9744;49.364;7.484;2022-12-13T06:29:26;-3.80;99.90
19220;DHT22;9744;49.364;7.484;2022-12-13T06:31:54;-3.80;99.90
19220;DHT22;9744;49.364;7.484;2022-12-13T06:34:22;-3.80;99.90
19220;DHT22;9744;49.364;7.484;2022-12-13T06:36:49;-3.80;99.90
19220;DHT22;9744;49.364;7.484;2022-12-13T06:39:16;-3.80;99.90
19220;DHT22;9744;49.364;7.484;2022-12-13T06:41:44;-3.80;99.90
19220;DHT22;9744;49.364;7.484;2022-12-13T06:44:12;-3.80;99.90
19220;DHT22;9744;49.364;7.484;2022-12-13T06:46:40;-3.80;99.90
19220;DHT22;9744;49.364;7.484;2022-12-13T06:49:07;-3.90;99.90
19220;DHT22;9744;49.364;7.484;2022-12-13T06:51:35;-3.90;99.90
19220;DHT22;9744;49.364;7.484;2022-12-13T06:54:02;-3.90;99.90
19220;DHT22;9744;49.364;7.484;2022-12-13T06:56:30;-3.80;99.90
19220;DHT22;9744;49.364;7.484;2022-12-13T06:58:58;-3.90;99.90
19220;DHT22;9744;49.364;7.484;2022-12-13T07:01:26;-3.80;99.90
19220;DHT22;9744;49.364;7.484;2022-12-13T07:03:54;-3.80;99.90
19220;DHT22;9744;49.364;7.484;2022-12-13T07:06:24;-3.80;99.90
19220;DHT22;9744;49.364;7.484;2022-12-13T07:08:53;-3.80;99.90
19220;DHT22;9744;49.364;7.484;2022-12-13T07:11:23;-3.80;99.90
19220;DHT22;9744;49.364;7.484;2022-12-13T07:13:51;-3.80;99.90
19220;DHT22;9744;49.364;7.484;2022-12-13T07:16:20;-3.90;99.90
19220;DHT22;9744;49.364;7.484;2022-12-13T07:18:52;-3.90;99.90
19220;DHT22;9744;49.364;7.484;2022-12-13T07:21:21;-3.90;99.90
19220;DHT22;9744;49.364;7.484;2022-12-13T07:23:48;-3.90;99.90
19220;DHT22;9744;49.364;7.484;2022-12-13T07:26:16;-3.80;99.90
19220;DHT22;9744;49.364;7.484;2022-12-13T07:28:43;-3.80;99.90
19220;DHT22;9744;49.364;7.484;2022-12-13T07:31:11;-4.00;99.90
19220;DHT22;9744;49.364;7.484;2022-12-13T07:33:39;-4.10;99.90
19220;DHT22;9744;49.364;7.484;2022-12-13T07:36:11;-4.00;99.90
19220;DHT22;9744;49.364;7.484;2022-12-13T07:38:39;-3.90;99.90
19220;DHT22;9744;49.364;7.484;2022-12-13T07:41:07;-3.90;99.90
19220;DHT22;9744;49.364;7.484;2022-12-13T07:43:35;-4.10;99.90
19220;DHT22;9744;49.364;7.484;2022-12-13T07:46:04;-4.10;99.90
19220;DHT22;9744;49.364;7.484;2022-12-13T07:48:32;-4.10;99.90
19220;DHT22;9744;49.364;7.484;2022-12-13T07:51:01;-4.10;99.90
19220;DHT22;9744;49.364;7.484;2022-12-13T07:53:30;-4.00;99.90
19220;DHT22;9744;49.364;7.484;2022-12-13T07:56:00;-4.10;99.90
19220;DHT22;9744;49.364;7.484;2022-12-13T07:58:28;-4.10;99.90
19220;DHT22;9744;49.364;7.484;2022-12-13T08:00:58;-4.20;99.90
19220;DHT22;9744;49.364;7.484;2022-12-13T08:03:26;-4.10;99.90
19220;DHT22;9744;49.364;7.484;2022-12-13T08:06:00;-3.90;99.90
19220;DHT22;9744;49.364;7.484;2022-12-13T08:08:29;-3.90;99.90
19220;DHT22;9744;49.364;7.484;2022-12-13T08:10:59;-3.90;99.90
19220;DHT22;9744;49.364;7.484;2022-12-13T08:13:27;-3.80;99.90
19220;DHT22;9744;49.364;7.484;2022-12-13T08:15:57;-3.80;99.90
19220;DHT22;9744;49.364;7.484;2022-12-13T08:18:25;-3.80;99.90
19220;DHT22;9744;49.364;7.484;2022-12-13T08:20:56;-3.80;99.90
19220;DHT22;9744;49.364;7.484;2022-12-13T08:23:23;-4.00;99.90
19220;DHT22;9744;49.364;7.484;2022-12-13T08:25:52;-4.10;99.90
19220;DHT22;9744;49.364;7.484;2022-12-13T08:28:20;-4.10;99.90
19220;DHT22;9744;49.364;7.484;2022-12-13T08:30:48;-4.10;99.90
19220;DHT22;9744;49.364;7.484;2022-12-13T08:33:15;-4.00;99.90
19220;DHT22;9744;49.364;7.484;2022-12-13T08:35:42;-3.90;99.90
19220;DHT22;9744;49.364;7.484;2022-12-13T08:38:10;-4.00;99.90
19220;DHT22;9744;49.364;7.484;2022-12-13T08:40:37;-4.10;99.90
19220;DHT22;9744;49.364;7.484;2022-12-13T08:43:06;-4.00;99.90
19220;DHT22;9744;49.364;7.484;2022-12-13T08:45:33;-3.80;99.90
19220;DHT22;9744;49.364;7.484;2022-12-13T08:48:01;-3.70;99.90
19220;DHT22;9744;49.364;7.484;2022-12-13T08:50:29;-3.60;99.90
19220;DHT22;9744;49.364;7.484;2022-12-13T08:52:56;-3.50;99.90
19220;DHT22;9744;49.364;7.484;2022-12-13T08:55:25;-3.50;99.90
19220;DHT22;9744;49.364;7.484;2022-12-13T08:57:52;-3.60;99.90
19220;DHT22;9744;49.364;7.484;2022-12-13T09:00:21;-3.50;99.90
19220;DHT22;9744;49.364;7.484;2022-12-13T09:02:48;-3.40;99.90
19220;DHT22;9744;49.364;7.484;2022-12-13T09:05:15;-3.30;99.90
19220;DHT22;9744;49.364;7.484;2022-12-13T09:07:42;-3.20;99.90
19220;DHT22;9744;49.364;7.484;2022-12-13T09:10:10;-3.10;99.90
19220;DHT22;9744;49.364;7.484;2022-12-13T09:12:40;-3.00;99.90
19220;DHT22;9744;49.364;7.484;2022-12-13T09:15:09;-3.00;99.90
19220;DHT22;9744;49.364;7.484;2022-12-13T09:17:37;-2.90;99.90
19220;DHT22;9744;49.364;7.484;2022-12-13T09:20:07;-2.80;99.90
19220;DHT22;9744;49.364;7.484;2022-12-13T09:22:36;-2.80;99.90
19220;DHT22;9744;49.364;7.484;2022-12-13T09:25:04;-2.70;99.90
19220;DHT22;9744;49.364;7.484;2022-12-13T09:27:32;-2.70;99.90
19220;DHT22;9744;49.364;7.484;2022-12-13T09:29:59;-2.60;99.90
19220;DHT22;9744;49.364;7.484;2022-12-13T09:32:26;-2.60;99.90
19220;DHT22;9744;49.364;7.484;2022-12-13T09:34:55;-2.60;99.90
19220;DHT22;9744;49.364;7.484;2022-12-13T09:37:23;-2.50;99.90
19220;DHT22;9744;49.364;7.484;2022-12-13T09:39:50;-2.40;99.90
19220;DHT22;9744;49.364;7.484;2022-12-13T09:42:20;-2.40;99.90
19220;DHT22;9744;49.364;7.484;2022-12-13T09:44:50;-2.30;99.90
19220;DHT22;9744;49.364;7.484;2022-12-13T09:47:28;-2.30;99.90
19220;DHT22;9744;49.364;7.484;2022-12-13T09:49:58;-2.20;99.90
19220;DHT22;9744;49.364;7.484;2022-12-13T09:52:35;-2.10;99.90
19220;DHT22;9744;49.364;7.484;2022-12-13T09:55:17;-2.00;99.90
19220;DHT22;9744;49.364;7.484;2022-12-13T09:57:45;-2.00;99.90
19220;DHT22;9744;49.364;7.484;2022-12-13T10:00:15;-2.00;99.90
19220;DHT22;9744;49.364;7.484;2022-12-13T10:02:45;-1.90;99.90
19220;DHT22;9744;49.364;7.484;2022-12-13T10:05:21;-1.90;99.90
19220;DHT22;9744;49.364;7.484;2022-12-13T10:07:53;-1.90;99.90
19220;DHT22;9744;49.364;7.484;2022-12-13T10:10:21;-1.90;99.90
19220;DHT22;9744;49.364;7.484;2022-12-13T10:12:53;-1.90;99.90
19220;DHT22;9744;49.364;7.484;2022-12-13T10:15:22;-1.80;99.90
19220;DHT22;9744;49.364;7.484;2022-12-13T10:17:50;-1.80;99.90
19220;DHT22;9744;49.364;7.484;2022-12-13T10:20:20;-1.80;99.90
19220;DHT22;9744;49.364;7.484;2022-12-13T10:22:50;-1.70;99.90
19220;DHT22;9744;49.364;7.484;2022-12-13T10:25:43;-1.70;99.90
19220;DHT22;9744;49.364;7.484;2022-12-13T10:28:11;-1.70;99.90
19220;DHT22;9744;49.364;7.484;2022-12-13T10:30:42;-1.60;99.90
19220;DHT22;9744;49.364;7.484;2022-12-13T10:33:21;-1.50;99.90
19220;DHT22;9744;49.364;7.484;2022-12-13T10:36:04;-1.60;99.90
19220;DHT22;9744;49.364;7.484;2022-12-13T10:38:35;-1.60;99.90
19220;DHT22;9744;49.364;7.484;2022-12-13T10:41:33;-1.60;99.90
19220;DHT22;9744;49.364;7.484;2022-12-13T10:44:19;-1.50;99.90
19220;DHT22;9744;49.364;7.484;2022-12-13T10:46:59;-1.50;99.90
19220;DHT22;9744;49.364;7.484;2022-12-13T10:49:36;-1.50;99.90
19220;DHT22;9744;49.364;7.484;2022-12-13T10:52:06;-1.50;99.90
19220;DHT22;9744;49.364;7.484;2022-12-13T10:54:37;-1.50;99.90
19220;DHT22;9744;49.364;7.484;2022-12-13T10:57:04;-1.40;99.90
19220;DHT22;9744;49.364;7.484;2022-12-13T10:59:33;-1.50;99.90
19220;DHT22;9744;49.364;7.484;2022-12-13T11:02:29;-1.40;99.90
19220;DHT22;9744;49.364;7.484;2022-12-13T11:04:58;-1.40;99.90
19220;DHT22;9744;49.364;7.484;2022-12-13T11:07:29;-1.30;99.90
19220;DHT22;9744;49.364;7.484;2022-12-13T11:09:57;-1.30;99.90
19220;DHT22;9744;49.364;7.484;2022-12-13T11:12:41;-1.30;99.90
19220;DHT22;9744;49.364;7.484;2022-12-13T11:15:14;-1.30;99.90
19220;DHT22;9744;49.364;7.484;2022-12-13T11:17:46;-1.20;99.90
19220;DHT22;9744;49.364;7.484;2022-12-13T11:20:16;-1.30;99.90
19220;DHT22;9744;49.364;7.484;2022-12-13T11:22:47;-1.20;99.90
19220;DHT22;9744;49.364;7.484;2022-12-13T11:25:20;-1.20;99.90
19220;DHT22;9744;49.364;7.484;2022-12-13T11:28:01;-1.10;99.90
19220;DHT22;9744;49.364;7.484;2022-12-13T11:30:35;-1.10;99.90
19220;DHT22;9744;49.364;7.484;2022-12-13T11:33:16;-1.00;99.90
19220;DHT22;9744;49.364;7.484;2022-12-13T11:35:57;-1.00;99.90
19220;DHT22;9744;49.364;7.484;2022-12-13T11:38:32;-1.00;99.90
19220;DHT22;9744;49.364;7.484;2022-12-13T11:41:06;-1.00;99.90
19220;DHT22;9744;49.364;7.484;2022-12-13T11:43:40;-0.90;99.90
19220;DHT22;9744;49.364;7.484;2022-12-13T11:46:13;-0.90;99.90
19220;DHT22;9744;49.364;7.484;2022-12-13T11:48:46;-0.90;99.90
19220;DHT22;9744;49.364;7.484;2022-12-13T11:51:20;-0.80;99.90
19220;DHT22;9744;49.364;7.484;2022-12-13T11:53:55;-0.80;99.90
19220;DHT22;9744;49.364;7.484;2022-12-13T11:56:25;-0.90;99.90
19220;DHT22;9744;49.364;7.484;2022-12-13T11:59:00;-0.80;99.90
19220;DHT22;9744;49.364;7.484;2022-12-13T12:01:33;-0.80;99.90
19220;DHT22;9744;49.364;7.484;2022-12-13T12:04:11;-0.70;99.90
19220;DHT22;9744;49.364;7.484;2022-12-13T12:06:45;-0.60;99.90
19220;DHT22;9744;49.364;7.484;2022-12-13T12:09:18;-0.50;99.90
19220;DHT22;9744;49.364;7.484;2022-12-13T12:11:52;-0.40;99.90
19220;DHT22;9744;49.364;7.484;2022-12-13T12:14:23;-0.40;99.90
19220;DHT22;9744;49.364;7.484;2022-12-13T12:16:55;-0.30;99.90
19220;DHT22;9744;49.364;7.484;2022-12-13T12:19:26;-0.20;99.90
19220;DHT22;9744;49.364;7.484;2022-12-13T12:22:10;-0.20;99.90
19220;DHT22;9744;49.364;7.484;2022-12-13T12:24:51;-0.10;99.90
19220;DHT22;9744;49.364;7.484;2022-12-13T12:27:29;-0.10;99.90
19220;DHT22;9744;49.364;7.484;2022-12-13T12:30:15;0.00;99.90
19220;DHT22;9744;49.364;7.484;2022-12-13T12:32:49;0.00;99.90
19220;DHT22;9744;49.364;7.484;2022-12-13T12:35:28;0.10;99.90
19220;DHT22;9744;49.364;7.484;2022-12-13T12:38:11;0.10;99.90
19220;DHT22;9744;49.364;7.484;2022-12-13T12:41:02;0.10;99.90
19220;DHT22;9744;49.364;7.484;2022-12-13T12:43:37;0.20;99.90
19220;DHT22;9744;49.364;7.484;2022-12-13T12:46:32;0.20;99.90
19220;DHT22;9744;49.364;7.484;2022-12-13T12:49:32;0.20;99.90
19220;DHT22;9744;49.364;7.484;2022-12-13T12:52:13;0.10;99.90
19220;DHT22;9744;49.364;7.484;2022-12-13T12:54:51;0.10;99.90
19220;DHT22;9744;49.364;7.484;2022-12-13T12:57:34;0.20;99.90
19220;DHT22;9744;49.364;7.484;2022-12-13T13:00:10;0.30;99.90
19220;DHT22;9744;49.364;7.484;2022-12-13T13:02:42;0.20;99.90
19220;DHT22;9744;49.364;7.484;2022-12-13T13:05:15;0.20;99.90
19220;DHT22;9744;49.364;7.484;2022-12-13T13:07:48;0.20;99.90
19220;DHT22;9744;49.364;7.484;2022-12-13T13:10:18;0.20;99.90
19220;DHT22;9744;49.364;7.484;2022-12-13T13:12:47;0.20;99.90
19220;DHT22;9744;49.364;7.484;2022-12-13T13:15:49;0.10;99.90
19220;DHT22;9744;49.364;7.484;2022-12-13T13:18:42;0.10;99.90
19220;DHT22;9744;49.364;7.484;2022-12-13T13:21:33;0.10;99.90
19220;DHT22;9744;49.364;7.484;2022-12-13T13:26:54;0.00;99.90
19220;DHT22;9744;49.364;7.484;2022-12-13T13:29:33;-0.10;99.90
19220;DHT22;9744;49.364;7.484;2022-12-13T13:34:47;-0.10;99.90
19220;DHT22;9744;49.364;7.484;2022-12-13T13:37:27;-0.20;99.90
19220;DHT22;9744;49.364;7.484;2022-12-13T13:39:59;-0.20;99.90
19220;DHT22;9744;49.364;7.484;2022-12-13T13:42:27;-0.20;99.90
19220;DHT22;9744;49.364;7.484;2022-12-13T13:45:18;-0.30;99.90
19220;DHT22;9744;49.364;7.484;2022-12-13T13:47:56;-0.30;99.90
19220;DHT22;9744;49.364;7.484;2022-12-13T14:09:14;-0.40;99.90
19220;DHT22;9744;49.364;7.484;2022-12-13T14:12:15;-0.40;99.90
19220;DHT22;9744;49.364;7.484;2022-12-13T14:15:06;-0.50;99.90
19220;DHT22;9744;49.364;7.484;2022-12-13T14:20:48;-0.60;99.90
19220;DHT22;9744;49.364;7.484;2022-12-13T14:23:37;-0.70;99.90
19220;DHT22;9744;49.364;7.484;2022-12-13T14:26:23;-0.70;99.90
19220;DHT22;9744;49.364;7.484;2022-12-13T14:28:54;-0.70;99.90
19220;DHT22;9744;49.364;7.484;2022-12-13T14:31:24;-0.80;99.90
19220;DHT22;9744;49.364;7.484;2022-12-13T14:33:54;-1.00;99.90
19220;DHT22;9744;49.364;7.484;2022-12-13T14:36:26;-1.10;99.90
19220;DHT22;9744;49.364;7.484;2022-12-13T14:39:01;-1.20;99.90
19220;DHT22;9744;49.364;7.484;2022-12-13T14:41:31;-1.30;99.90
19220;DHT22;9744;49.364;7.484;2022-12-13T14:44:14;-1.30;99.90
19220;DHT22;9744;49.364;7.484;2022-12-13T14:46:52;-1.30;99.90
19220;DHT22;9744;49.364;7.484;2022-12-13T14:49:21;-1.40;99.90
19220;DHT22;9744;49.364;7.484;2022-12-13T14:51:52;-1.40;99.90
19220;DHT22;9744;49.364;7.484;2022-12-13T14:54:35;-1.40;99.90
19220;DHT22;9744;49.364;7.484;2022-12-13T14:57:15;-1.40;99.90
19220;DHT22;9744;49.364;7.484;2022-12-13T14:59:44;-1.50;99.90
19220;DHT22;9744;49.364;7.484;2022-12-13T15:02:15;-1.60;99.90
19220;DHT22;9744;49.364;7.484;2022-12-13T15:04:43;-1.70;99.90
19220;DHT22;9744;49.364;7.484;2022-12-13T15:07:16;-1.70;99.90
19220;DHT22;9744;49.364;7.484;2022-12-13T15:09:50;-1.80;99.90
19220;DHT22;9744;49.364;7.484;2022-12-13T15:12:21;-1.90;99.90
19220;DHT22;9744;49.364;7.484;2022-12-13T15:14:52;-1.90;99.90
19220;DHT22;9744;49.364;7.484;2022-12-13T15:17:27;-1.90;99.90
19220;DHT22;9744;49.364;7.484;2022-12-13T15:19:56;-1.90;99.90
19220;DHT22;9744;49.364;7.484;2022-12-13T15:22:29;-2.00;99.90
19220;DHT22;9744;49.364;7.484;2022-12-13T15:25:00;-2.10;99.90
19220;DHT22;9744;49.364;7.484;2022-12-13T15:27:31;-2.10;99.90
19220;DHT22;9744;49.364;7.484;2022-12-13T15:29:58;-2.20;99.90
19220;DHT22;9744;49.364;7.484;2022-12-13T15:32:26;-2.20;99.90
19220;DHT22;9744;49.364;7.484;2022-12-13T15:34:53;-2.30;99.90
19220;DHT22;9744;49.364;7.484;2022-12-13T15:37:23;-2.40;99.90
19220;DHT22;9744;49.364;7.484;2022-12-13T15:39:55;-2.50;99.90
19220;DHT22;9744;49.364;7.484;2022-12-13T15:42:29;-1.50;99.90
19220;DHT22;9744;49.364;7.484;2022-12-13T15:45:02;-2.50;99.90
19220;DHT22;9744;49.364;7.484;2022-12-13T15:47:31;-2.60;99.90
19220;DHT22;9744;49.364;7.484;2022-12-13T15:50:30;-2.30;99.90
19220;DHT22;9744;49.364;7.484;2022-12-13T15:53:01;-2.40;99.90
19220;DHT22;9744;49.364;7.484;2022-12-13T15:55:33;-2.40;99.90
19220;DHT22;9744;49.364;7.484;2022-12-13T15:58:01;-2.40;99.90
19220;DHT22;9744;49.364;7.484;2022-12-13T16:00:47;-2.50;99.90
19220;DHT22;9744;49.364;7.484;2022-12-13T16:03:17;-2.60;99.90
19220;DHT22;9744;49.364;7.484;2022-12-13T16:05:49;-2.60;99.90
19220;DHT22;9744;49.364;7.484;2022-12-13T16:08:27;-2.60;99.90
19220;DHT22;9744;49.364;7.484;2022-12-13T16:10:57;-2.70;99.90
19220;DHT22;9744;49.364;7.484;2022-12-13T16:13:27;-2.70;99.90
19220;DHT22;9744;49.364;7.484;2022-12-13T16:15:57;-2.70;99.90
19220;DHT22;9744;49.364;7.484;2022-12-13T16:18:29;-2.70;99.90
19220;DHT22;9744;49.364;7.484;2022-12-13T16:20:57;-2.70;99.90
19220;DHT22;9744;49.364;7.484;2022-12-13T16:23:25;-2.70;99.90
19220;DHT22;9744;49.364;7.484;2022-12-13T16:25:52;-2.70;99.90
19220;DHT22;9744;49.364;7.484;2022-12-13T16:28:19;-2.60;99.90
19220;DHT22;9744;49.364;7.484;2022-12-13T16:31:01;-2.50;99.90
19220;DHT22;9744;49.364;7.484;2022-12-13T16:33:28;-2.50;99.90
19220;DHT22;9744;49.364;7.484;2022-12-13T16:35:56;-2.60;99.90
19220;DHT22;9744;49.364;7.484;2022-12-13T16:38:23;-2.60;99.90
19220;DHT22;9744;49.364;7.484;2022-12-13T16:40:53;-2.70;99.90
19220;DHT22;9744;49.364;7.484;2022-12-13T16:43:22;-2.00;99.90
19220;DHT22;9744;49.364;7.484;2022-12-13T16:45:52;-2.50;99.90